Time;durP1;ratioP1;P1;durP2;ratioP2;P2;SDS_P1;SDS_P2;PMS_P1;PMS_P2;Temp;Humidity;BMP_temperature;BMP_pressure;BME280_temperature;BME280_humidity;BME280_pressure;Samples;Min_cycle;Max_cycle;Signal;HPM_P1;HPM_P2
2022/06/19 00:01:40;;;;;;;;;;;;;;;;;;4993632;28;7035;-85
2022/06/19 00:04:07;;;;;;;;;;;;;;;;;;4993820;28;8326;-85
2022/06/19 00:06:36;;;;;;;;;;;;;;;;;;4994091;28;7030;-85
2022/06/19 00:09:03;;;;;;;;;;;;;;;;;;4994147;28;7046;-85
2022/06/19 00:11:29;;;;;;;;;;;;;;;;;;4993680;28;8691;-85
2022/06/19 00:13:55;;;;;;;;;;;;;;;;;;4993404;28;7068;-84
2022/06/19 00:16:20;;;;;;;;;;;;;;;;;;4993569;28;8354;-85
2022/06/19 00:18:46;;;;;;;;;;;;;;;;;;4993550;28;7135;-84
2022/06/19 00:21:15;;;;;;;;;;;;;;;;;;4993514;28;8337;-85
2022/06/19 00:23:41;;;;;;;;;;;;;;;;;;4993473;28;7327;-85
2022/06/19 00:26:07;;;;;;;;;;;;;;;;;;4993206;28;8634;-85
2022/06/19 00:28:33;;;;;;;;;;;;;;;;;;4993287;28;7350;-85
2022/06/19 00:30:58;;;;;;;;;;;;;;;;;;4993168;28;8617;-85
2022/06/19 00:33:24;;;;;;;;;;;;;;;;;;4992905;28;8352;-84
2022/06/19 00:35:50;;;;;;;;;;;;;;;;;;4993225;28;8280;-84
2022/06/19 00:38:15;;;;;;;;;;;;;;;;;;4993563;28;8367;-84
2022/06/19 00:40:40;;;;;;;;;;;;;;;;;;4993106;28;7390;-84
2022/06/19 00:43:06;;;;;;;;;;;;;;;;;;4992887;28;6810;-84
2022/06/19 00:45:31;;;;;;;;;;;;;;;;;;4993293;28;8764;-84
2022/06/19 00:47:59;;;;;;;;;;;;;;;;;;4992752;28;8406;-85
2022/06/19 00:50:30;;;;;;;;;;;;;;;;;;4992800;28;7159;-85
2022/06/19 00:52:57;;;;;;;;;;;;;;;;;;4993222;28;8695;-85
2022/06/19 00:55:25;;;;;;;;;;;;;;;;;;4992799;28;8432;-84
2022/06/19 00:57:57;;;;;;;;;;;;;;;;;;4993332;28;8123;-84
2022/06/19 01:00:26;;;;;;;;;;;;;;;;;;4992954;28;7364;-85
2022/06/19 01:02:55;;;;;;;;;;;;;;;;;;4992733;28;7171;-84
2022/06/19 01:05:24;;;;;;;;;;;;;;;;;;4992952;28;7028;-85
2022/06/19 01:07:50;;;;;;;;;;;;;;;;;;4992674;28;8318;-85
2022/06/19 01:10:16;;;;;;;;;;;;;;;;;;4992353;28;8318;-84
2022/06/19 01:12:43;;;;;;;;;;;;;;;;;;4992514;28;7032;-85
2022/06/19 01:15:11;;;;;;;;;;;;;;;;;;4992492;28;7154;-84
2022/06/19 01:17:38;;;;;;;;;;;;;;;;;;4992226;28;8446;-85
2022/06/19 01:20:05;;;;;;;;;;;;;;;;;;4992522;28;8731;-84
2022/06/19 01:22:31;;;;;;;;;;;;;;;;;;4992745;28;8352;-84
2022/06/19 01:25:08;;;;;;;;;;;;;;;;;;4992255;28;7445;-84
2022/06/19 01:30:23;;;;;;;;;;;;;;;;;;4977460;28;6932;-84
2022/06/19 01:32:50;;;;;;;;;;;;;;;;;;4992159;28;7147;-84
2022/06/19 01:35:18;;;;;;;;;;;;;;;;;;4992223;28;8259;-84
2022/06/19 01:37:46;;;;;;;;;;;;;;;;;;4992065;28;8484;-85
2022/06/19 01:40:15;;;;;;;;;;;;;;;;;;4991792;28;8648;-84
2022/06/19 01:42:41;;;;;;;;;;;;;;;;;;4991575;28;8625;-85
2022/06/19 01:45:07;;;;;;;;;;;;;;;;;;4991778;28;8132;-85
2022/06/19 01:47:33;;;;;;;;;;;;;;;;;;4992537;28;7410;-85
2022/06/19 01:50:00;;;;;;;;;;;;;;;;;;4992183;28;8586;-85
2022/06/19 01:52:29;;;;;;;;;;;;;;;;;;4992313;28;8454;-84
2022/06/19 01:55:03;;;;;;;;;;;;;;;;;;4992458;28;8484;-84
2022/06/19 01:57:32;;;;;;;;;;;;;;;;;;4992260;28;6980;-84
2022/06/19 01:59:58;;;;;;;;;;;;;;;;;;4991994;28;7047;-85
2022/06/19 02:02:24;;;;;;;;;;;;;;;;;;4991442;28;8328;-84
2022/06/19 02:04:51;;;;;;;;;;;;;;;;;;4991904;28;8516;-84
2022/06/19 02:07:21;;;;;;;;;;;;;;;;;;4991883;28;8314;-84
2022/06/19 02:09:51;;;;;;;;;;;;;;;;;;4991664;28;7336;-84
2022/06/19 02:12:17;;;;;;;;;;;;;;;;;;4991205;28;7178;-85
2022/06/19 02:14:42;;;;;;;;;;;;;;;;;;4990725;28;8442;-85
2022/06/19 02:17:14;;;;;;;;;;;;;;;;;;4991437;28;8322;-85
2022/06/19 02:19:39;;;;;;;;;;;;;;;;;;4988368;28;7165;-84
2022/06/19 02:22:10;;;;;;;;;;;;;;;;;;4980202;28;8436;-84
2022/06/19 02:24:36;;;;;;;;;;;;;;;;;;4980008;28;7020;-85
2022/06/19 02:27:02;;;;;;;;;;;;;;;;;;4980084;28;7078;-85
2022/06/19 02:29:28;;;;;;;;;;;;;;;;;;4981469;28;7149;-85
2022/06/19 02:31:55;;;;;;;;;;;;;;;;;;4965927;28;7383;-85
2022/06/19 02:34:32;;;;;;;;;;;;;;;;;;4963305;28;7043;-85
2022/06/19 02:36:59;;;;;;;;;;;;;;;;;;4956159;28;7249;-85
2022/06/19 02:39:41;;;;;;;;;;;;;;;;;;4955808;28;7183;-85
2022/06/19 02:42:28;;;;;;;;;;;;;;;;;;4955089;28;7044;-85
2022/06/19 02:44:58;;;;;;;;;;;;;;;;;;4972350;28;8389;-85
2022/06/19 02:47:26;;;;;;;;;;;;;;;;;;4955935;29;7122;-84
2022/06/19 02:49:52;;;;;;;;;;;;;;;;;;4955255;29;8807;-84
2022/06/19 02:52:17;;;;;;;;;;;;;;;;;;4955444;29;8389;-84
2022/06/19 02:54:43;;;;;;;;;;;;;;;;;;4955592;29;7011;-85
2022/06/19 02:57:11;;;;;;;;;;;;;;;;;;4955379;29;8499;-84
2022/06/19 02:59:37;;;;;;;;;;;;;;;;;;4955581;29;7262;-85
2022/06/19 03:02:03;;;;;;;;;;;;;;;;;;4955666;29;7103;-85
2022/06/19 03:04:38;;;;;;;;;;;;;;;;;;4955361;29;8440;-84
2022/06/19 03:07:04;;;;;;;;;;;;;;;;;;4955176;29;7217;-85
2022/06/19 03:09:30;;;;;;;;;;;;;;;;;;4964707;28;7155;-85
2022/06/19 03:11:55;;;;;;;;;;;;;;;;;;4979156;28;7173;-84
2022/06/19 03:14:21;;;;;;;;;;;;;;;;;;4965346;28;7216;-85
2022/06/19 03:16:46;;;;;;;;;;;;;;;;;;4964123;28;7167;-85
2022/06/19 03:19:12;;;;;;;;;;;;;;;;;;4982374;28;7158;-84
2022/06/19 03:21:38;;;;;;;;;;;;;;;;;;4979671;28;7019;-85
2022/06/19 03:24:04;;;;;;;;;;;;;;;;;;4981304;28;8287;-85
2022/06/19 03:26:30;;;;;;;;;;;;;;;;;;4964597;28;7017;-85
2022/06/19 03:28:57;;;;;;;;;;;;;;;;;;4968906;28;7156;-85
2022/06/19 03:31:25;;;;;;;;;;;;;;;;;;4980789;28;8418;-85
2022/06/19 03:33:51;;;;;;;;;;;;;;;;;;4981422;28;8425;-85
2022/06/19 03:36:18;;;;;;;;;;;;;;;;;;4958981;28;8306;-85
2022/06/19 03:38:44;;;;;;;;;;;;;;;;;;4958653;28;7430;-85
2022/06/19 03:41:10;;;;;;;;;;;;;;;;;;4958975;28;7125;-85
2022/06/19 03:43:36;;;;;;;;;;;;;;;;;;4958689;28;7207;-85
2022/06/19 03:46:07;;;;;;;;;;;;;;;;;;4958719;28;7146;-85
2022/06/19 03:48:33;;;;;;;;;;;;;;;;;;4959307;28;7046;-85
2022/06/19 03:50:59;;;;;;;;;;;;;;;;;;4958863;28;7038;-85
2022/06/19 03:53:25;;;;;;;;;;;;;;;;;;4974751;28;8339;-85
2022/06/19 03:55:50;;;;;;;;;;;;;;;;;;4958315;28;7047;-85
2022/06/19 03:58:16;;;;;;;;;;;;;;;;;;4958522;28;8359;-85
2022/06/19 04:00:42;;;;;;;;;;;;;;;;;;4958738;28;7123;-85
2022/06/19 04:03:07;;;;;;;;;;;;;;;;;;4958676;28;7081;-85
2022/06/19 04:05:32;;;;;;;;;;;;;;;;;;4958771;28;8363;-85
2022/06/19 04:07:58;;;;;;;;;;;;;;;;;;4960790;28;7056;-85
2022/06/19 04:10:24;;;;;;;;;;;;;;;;;;4984287;28;8373;-85
2022/06/19 04:12:51;;;;;;;;;;;;;;;;;;4965649;28;8716;-85
2022/06/19 04:15:16;;;;;;;;;;;;;;;;;;4968526;28;7152;-85
2022/06/19 04:17:42;;;;;;;;;;;;;;;;;;4979956;28;8646;-85
2022/06/19 04:20:09;;;;;;;;;;;;;;;;;;4985276;28;7132;-85
2022/06/19 04:22:35;;;;;;;;;;;;;;;;;;4984835;28;7403;-85
2022/06/19 04:25:00;;;;;;;;;;;;;;;;;;4982289;28;8403;-85
2022/06/19 04:27:26;;;;;;;;;;;;;;;;;;4983593;28;7238;-84
2022/06/19 04:29:51;;;;;;;;;;;;;;;;;;4967712;28;7071;-85
2022/06/19 04:32:18;;;;;;;;;;;;;;;;;;4966839;28;7230;-85
2022/06/19 04:34:43;;;;;;;;;;;;;;;;;;4966019;28;8630;-84
2022/06/19 04:37:08;;;;;;;;;;;;;;;;;;4982507;28;8266;-84
2022/06/19 04:39:34;;;;;;;;;;;;;;;;;;4967438;28;8306;-85
2022/06/19 04:42:00;;;;;;;;;;;;;;;;;;4984616;28;8388;-85
2022/06/19 04:44:26;;;;;;;;;;;;;;;;;;4992824;28;7048;-85
2022/06/19 04:46:51;;;;;;;;;;;;;;;;;;4993210;28;7109;-84
2022/06/19 04:49:17;;;;;;;;;;;;;;;;;;4993213;28;7063;-85
2022/06/19 04:51:44;;;;;;;;;;;;;;;;;;4992944;28;8440;-85
2022/06/19 04:54:09;;;;;;;;;;;;;;;;;;4993139;28;7420;-84
2022/06/19 04:56:35;;;;;;;;;;;;;;;;;;4974158;28;7077;-85
2022/06/19 04:59:02;;;;;;;;;;;;;;;;;;4972868;28;7146;-85
2022/06/19 05:01:32;;;;;;;;;;;;;;;;;;4971765;28;7024;-85
2022/06/19 05:03:59;;;;;;;;;;;;;;;;;;4955612;28;8436;-85
2022/06/19 05:06:25;;;;;;;;;;;;;;;;;;4956512;28;8486;-85
2022/06/19 05:08:51;;;;;;;;;;;;;;;;;;4955952;28;8577;-86
2022/06/19 05:11:18;;;;;;;;;;;;;;;;;;4955385;28;8885;-85
2022/06/19 05:13:44;;;;;;;;;;;;;;;;;;4954901;28;7173;-85
2022/06/19 05:16:12;;;;;;;;;;;;;;;;;;4954609;28;7138;-85
2022/06/19 05:18:37;;;;;;;;;;;;;;;;;;4955406;28;7074;-85
2022/06/19 05:21:04;;;;;;;;;;;;;;;;;;4972277;28;7112;-85
2022/06/19 05:23:35;;;;;;;;;;;;;;;;;;4971889;28;7088;-85
2022/06/19 05:26:07;;;;;;;;;;;;;;;;;;4970974;28;8945;-85
2022/06/19 05:28:34;;;;;;;;;;;;;;;;;;4972016;28;7031;-86
2022/06/19 05:31:00;;;;;;;;;;;;;;;;;;4972075;28;7391;-86
2022/06/19 05:33:27;;;;;;;;;;;;;;;;;;4971798;28;7037;-86
2022/06/19 05:35:54;;;;;;;;;;;;;;;;;;4971890;28;8419;-86
2022/06/19 05:38:20;;;;;;;;;;;;;;;;;;4972117;28;8597;-85
2022/06/19 05:40:45;;;;;;;;;;;;;;;;;;4971565;28;7371;-85
2022/06/19 05:43:11;;;;;;;;;;;;;;;;;;4971491;28;7192;-85
2022/06/19 05:45:36;;;;;;;;;;;;;;;;;;4971438;28;7478;-85
2022/06/19 05:48:02;;;;;;;;;;;;;;;;;;4970981;28;7147;-85
2022/06/19 05:50:28;;;;;;;;;;;;;;;;;;4971279;28;7035;-85
2022/06/19 05:52:54;;;;;;;;;;;;;;;;;;4971701;28;7146;-90
2022/06/19 05:55:19;;;;;;;;;;;;;;;;;;4935880;28;12387;-84
2022/06/19 05:57:45;;;;;;;;;;;;;;;;;;4934384;28;11979;-85
2022/06/19 06:00:10;;;;;;;;;;;;;;;;;;4954349;28;7094;-85
2022/06/19 06:02:36;;;;;;;;;;;;;;;;;;4955465;28;8288;-84
2022/06/19 06:05:02;;;;;;;;;;;;;;;;;;4955762;28;7576;-85
2022/06/19 06:07:28;;;;;;;;;;;;;;;;;;4956236;28;7149;-84
2022/06/19 06:09:53;;;;;;;;;;;;;;;;;;4955610;28;8498;-84
2022/06/19 06:12:19;;;;;;;;;;;;;;;;;;4955618;28;8574;-85
2022/06/19 06:14:44;;;;;;;;;;;;;;;;;;4955913;28;8441;-87
2022/06/19 06:17:10;;;;;;;;;;;;;;;;;;4955183;28;7367;-86
2022/06/19 06:19:36;;;;;;;;;;;;;;;;;;4956032;28;8743;-86
2022/06/19 06:22:03;;;;;;;;;;;;;;;;;;4956396;28;8401;-86
2022/06/19 06:24:29;;;;;;;;;;;;;;;;;;4956248;28;7168;-85
2022/06/19 06:26:55;;;;;;;;;;;;;;;;;;4955748;28;8502;-86
2022/06/19 06:29:21;;;;;;;;;;;;;;;;;;4955982;28;8300;-86
2022/06/19 06:31:47;;;;;;;;;;;;;;;;;;4955771;28;7089;-86
2022/06/19 06:34:13;;;;;;;;;;;;;;;;;;4955414;28;7323;-86
2022/06/19 06:36:38;;;;;;;;;;;;;;;;;;4956213;28;8298;-86
2022/06/19 06:39:04;;;;;;;;;;;;;;;;;;4955755;28;7170;-86
2022/06/19 06:41:30;;;;;;;;;;;;;;;;;;4955402;28;7365;-86
2022/06/19 06:43:55;;;;;;;;;;;;;;;;;;4955443;28;7001;-86
2022/06/19 06:46:23;;;;;;;;;;;;;;;;;;4956139;28;6975;-86
2022/06/19 06:48:51;;;;;;;;;;;;;;;;;;4955697;28;7140;-86
2022/06/19 06:51:19;;;;;;;;;;;;;;;;;;4955775;28;7034;-86
2022/06/19 06:53:45;;;;;;;;;;;;;;;;;;4955560;28;8487;-86
2022/06/19 06:56:10;;;;;;;;;;;;;;;;;;4955482;28;7986;-84
2022/06/19 06:58:37;;;;;;;;;;;;;;;;;;4955676;28;6834;-86
2022/06/19 07:01:13;;;;;;;;;;;;;;;;;;4958665;28;7181;-86
2022/06/19 07:03:39;;;;;;;;;;;;;;;;;;4959548;28;6841;-86
2022/06/19 07:06:05;;;;;;;;;;;;;;;;;;4959464;28;7159;-86
2022/06/19 07:08:31;;;;;;;;;;;;;;;;;;4959173;28;7026;-82
2022/06/19 07:10:56;;;;;;;;;;;;;;;;;;4959548;28;8374;-82
2022/06/19 07:13:22;;;;;;;;;;;;;;;;;;4958944;28;7024;-82
2022/06/19 07:15:49;;;;;;;;;;;;;;;;;;4958869;28;8406;-84
2022/06/19 07:18:15;;;;;;;;;;;;;;;;;;4959328;28;8451;-84
2022/06/19 07:20:40;;;;;;;;;;;;;;;;;;4959650;28;8410;-83
2022/06/19 07:23:05;;;;;;;;;;;;;;;;;;4958790;28;7147;-82
2022/06/19 07:25:31;;;;;;;;;;;;;;;;;;4958678;28;8479;-83
2022/06/19 07:27:59;;;;;;;;;;;;;;;;;;4959554;28;8049;-82
2022/06/19 07:30:26;;;;;;;;;;;;;;;;;;4958808;28;7055;-83
2022/06/19 07:32:52;;;;;;;;;;;;;;;;;;4960454;28;7085;-83
2022/06/19 07:35:18;;;;;;;;;;;;;;;;;;4959071;28;8521;-82
2022/06/19 07:37:44;;;;;;;;;;;;;;;;;;4957534;28;8698;-81
2022/06/19 07:40:12;;;;;;;;;;;;;;;;;;4973524;28;6843;-86
2022/06/19 07:42:37;;;;;;;;;;;;;;;;;;4972077;28;8849;-83
2022/06/19 07:45:03;;;;;;;;;;;;;;;;;;4971348;28;7387;-82
2022/06/19 07:50:15;;;;;;;;;;;;;;;;;;4955718;28;7073;-83
2022/06/19 07:52:44;;;;;;;;;;;;;;;;;;4971634;28;7196;-83
2022/06/19 07:55:12;;;;;;;;;;;;;;;;;;4971941;28;7176;-86
2022/06/19 07:57:38;;;;;;;;;;;;;;;;;;4972109;28;8561;-85
2022/06/19 08:00:04;;;;;;;;;;;;;;;;;;4972016;28;7105;-83
2022/06/19 08:02:30;;;;;;;;;;;;;;;;;;4971794;28;7111;-86
2022/06/19 08:04:55;;;;;;;;;;;;;;;;;;4972170;28;7187;-86
2022/06/19 08:07:21;;;;;;;;;;;;;;;;;;4971000;28;7295;-86
2022/06/19 08:09:46;;;;;;;;;;;;;;;;;;4971827;28;7055;-86
2022/06/19 08:12:12;;;;;;;;;;;;;;;;;;4971250;28;8515;-86
2022/06/19 08:14:38;;;;;;;;;;;;;;;;;;4971397;28;8399;-86
2022/06/19 08:17:03;;;;;;;;;;;;;;;;;;4971536;28;8745;-79
2022/06/19 08:19:29;;;;;;;;;;;;;;;;;;4955617;28;7318;-85
2022/06/19 08:21:54;;;;;;;;;;;;;;;;;;4971327;28;8404;-85
2022/06/19 08:24:20;;;;;;;;;;;;;;;;;;4970440;28;8626;-84
2022/06/19 08:26:46;;;;;;;;;;;;;;;;;;4970527;28;8439;-86
2022/06/19 08:29:11;;;;;;;;;;;;;;;;;;4971163;28;7175;-84
2022/06/19 08:31:37;;;;;;;;;;;;;;;;;;4972005;28;7379;-85
2022/06/19 08:34:03;;;;;;;;;;;;;;;;;;4971273;28;8396;-85
2022/06/19 08:36:32;;;;;;;;;;;;;;;;;;4970650;28;7397;-85
2022/06/19 08:39:01;;;;;;;;;;;;;;;;;;4954862;28;8534;-85
2022/06/19 08:41:46;;;;;;;;;;;;;;;;;;4955163;28;8455;-85
2022/06/19 08:44:36;;;;;;;;;;;;;;;;;;4970968;28;7015;-85
2022/06/19 08:47:08;;;;;;;;;;;;;;;;;;4971479;28;8606;-85
2022/06/19 08:49:52;;;;;;;;;;;;;;;;;;4970997;28;8544;-86
2022/06/19 08:52:32;;;;;;;;;;;;;;;;;;4970934;28;8497;-85
2022/06/19 08:55:16;;;;;;;;;;;;;;;;;;4971245;28;8390;-86
2022/06/19 08:58:00;;;;;;;;;;;;;;;;;;4970854;28;8503;-86
2022/06/19 09:00:41;;;;;;;;;;;;;;;;;;4972003;28;8430;-86
2022/06/19 09:03:13;;;;;;;;;;;;;;;;;;4972518;28;7232;-85
2022/06/19 09:05:58;;;;;;;;;;;;;;;;;;4972225;28;8461;-86
2022/06/19 09:08:44;;;;;;;;;;;;;;;;;;4971999;28;7036;-86
2022/06/19 09:11:15;;;;;;;;;;;;;;;;;;4972267;28;7042;-85
2022/06/19 09:13:44;;;;;;;;;;;;;;;;;;4971950;28;8866;-85
2022/06/19 09:16:32;;;;;;;;;;;;;;;;;;4935338;28;12194;-85
2022/06/19 09:19:10;;;;;;;;;;;;;;;;;;4971681;28;7143;-85
2022/06/19 09:21:54;;;;;;;;;;;;;;;;;;4989199;28;8395;-85
2022/06/19 09:24:32;;;;;;;;;;;;;;;;;;4988826;28;8709;-85
2022/06/19 09:26:59;;;;;;;;;;;;;;;;;;4989898;28;8280;-85
2022/06/19 09:29:37;;;;;;;;;;;;;;;;;;4989180;28;8273;-86
2022/06/19 09:32:05;;;;;;;;;;;;;;;;;;4930308;28;12323;-85
2022/06/19 09:34:31;;;;;;;;;;;;;;;;;;4970839;28;8291;-85
2022/06/19 09:37:07;;;;;;;;;;;;;;;;;;4988634;28;7131;-85
2022/06/19 09:39:56;;;;;;;;;;;;;;;;;;4983878;28;9448;-85
2022/06/19 09:42:29;;;;;;;;;;;;;;;;;;4973305;28;8322;-85
2022/06/19 09:45:00;;;;;;;;;;;;;;;;;;4979155;28;7169;-86
2022/06/19 09:47:36;;;;;;;;;;;;;;;;;;4980952;28;7062;-86
2022/06/19 09:50:15;;;;;;;;;;;;;;;;;;4980225;28;8661;-85
2022/06/19 09:52:48;;;;;;;;;;;;;;;;;;4980553;28;7188;-86
2022/06/19 09:55:18;;;;;;;;;;;;;;;;;;4979838;28;7058;-85
2022/06/19 09:57:51;;;;;;;;;;;;;;;;;;4980467;28;8682;-86
2022/06/19 10:00:23;;;;;;;;;;;;;;;;;;4963457;28;7411;-85
2022/06/19 10:02:55;;;;;;;;;;;;;;;;;;4979588;28;8307;-85
2022/06/19 10:05:27;;;;;;;;;;;;;;;;;;4980279;28;8402;-85
2022/06/19 10:08:12;;;;;;;;;;;;;;;;;;4979582;28;7020;-85
2022/06/19 10:10:57;;;;;;;;;;;;;;;;;;4970464;28;7024;-85
2022/06/19 10:13:33;;;;;;;;;;;;;;;;;;4978701;28;7155;-86
2022/06/19 10:16:01;;;;;;;;;;;;;;;;;;4957703;28;8402;-85
2022/06/19 10:18:27;;;;;;;;;;;;;;;;;;4971347;28;8753;-85
2022/06/19 10:21:04;;;;;;;;;;;;;;;;;;4970905;28;8694;-86
2022/06/19 10:23:53;;;;;;;;;;;;;;;;;;4971272;28;7051;-84
2022/06/19 10:26:21;;;;;;;;;;;;;;;;;;4965688;28;9130;-89
2022/06/19 10:28:47;;;;;;;;;;;;;;;;;;4971007;28;7166;-85
2022/06/19 10:31:15;;;;;;;;;;;;;;;;;;4971318;28;7328;-84
2022/06/19 10:33:57;;;;;;;;;;;;;;;;;;4970271;28;9065;-84
2022/06/19 10:36:32;;;;;;;;;;;;;;;;;;4970276;28;7403;-84
2022/06/19 10:39:16;;;;;;;;;;;;;;;;;;4970955;28;7248;-85
2022/06/19 10:42:00;;;;;;;;;;;;;;;;;;4970604;28;8371;-85
2022/06/19 10:44:29;;;;;;;;;;;;;;;;;;4973731;28;7101;-85
2022/06/19 10:47:27;;;;;;;;;;;;;;;;;;5052142;28;7023;-60
2022/06/19 10:50:25;;;;;;;;;;;;;;;;;;5031861;28;7373;-60
2022/06/19 10:56:13;;;;;;;;;;;;;;;;;;5031603;28;7013;-60
2022/06/19 10:58:56;;;;;;;;;;;;;;;;;;5031371;28;7046;-59
2022/06/19 11:04:40;;;;;;;;;;;;;;;;;;5031728;28;6807;-62
2022/06/19 11:07:13;;;;;;;;;;;;;;;;;;5031032;28;7254;-61
2022/06/19 11:09:49;;;;;;;;;;;;;;;;;;5031356;28;7035;-61
2022/06/19 11:12:34;;;;;;;;;;;;;;;;;;5030056;28;7027;-64
2022/06/19 11:15:35;;;;;;;;;;;;;;;;;;5030937;28;7008;-61
2022/06/19 11:18:30;;;;;;;;;;;;;;;;;;5009329;28;8115;-63
2022/06/19 11:20:59;;;;;;;;;;;;;;;;;;5011534;28;7089;-63
2022/06/19 11:24:00;;;;;;;;;;;;;;;;;;5012203;28;7116;-63
2022/06/19 11:29:40;;;;;;;;;;;;;;;;;;5011619;28;6980;-61
2022/06/19 11:32:15;;;;;;;;;;;;;;;;;;5011555;28;7184;-61
2022/06/19 11:34:51;;;;;;;;;;;;;;;;;;5011198;28;6989;-61
2022/06/19 11:37:17;;;;;;;;;;;;;;;;;;5011511;28;7146;-61
2022/06/19 11:40:00;;;;;;;;;;;;;;;;;;5011208;28;7059;-61
2022/06/19 11:42:36;;;;;;;;;;;;;;;;;;5011551;28;7589;-61
2022/06/19 11:45:26;;;;;;;;;;;;;;;;;;5012158;28;7175;-61
2022/06/19 11:48:15;;;;;;;;;;;;;;;;;;5020322;28;7158;-61
2022/06/19 11:50:51;;;;;;;;;;;;;;;;;;5031038;28;7109;-61
2022/06/19 11:53:37;;;;;;;;;;;;;;;;;;5030938;28;7035;-61
2022/06/19 11:56:48;;;;;;;;;;;;;;;;;;5029959;28;7209;-61
2022/06/19 12:05:44;;;;;;;;;;;;;;;;;;4956838;28;6719;-61
2022/06/19 12:08:28;;;;;;;;;;;;;;;;;;4956854;28;7223;-61
2022/06/19 12:11:10;;;;;;;;;;;;;;;;;;4956189;28;7218;-61
2022/06/19 12:13:39;;;;;;;;;;;;;;;;;;4956869;28;7120;-61
2022/06/19 12:16:25;;;;;;;;;;;;;;;;;;4956705;28;7212;-61
2022/06/19 12:18:51;;;;;;;;;;;;;;;;;;4956646;28;7218;-61
2022/06/19 12:30:55;;;;;;;;;;;;;;;;;;4998940;28;7056;-60
2022/06/19 12:33:38;;;;;;;;;;;;;;;;;;5016767;28;6982;-60
2022/06/19 12:36:08;;;;;;;;;;;;;;;;;;5016879;28;7157;-60
2022/06/19 12:38:35;;;;;;;;;;;;;;;;;;5016474;28;7131;-60
2022/06/19 12:41:19;;;;;;;;;;;;;;;;;;5016344;28;7050;-60
2022/06/19 12:43:50;;;;;;;;;;;;;;;;;;5016551;28;7779;-60
2022/06/19 12:46:30;;;;;;;;;;;;;;;;;;5012460;28;7051;-60
2022/06/19 12:51:47;;;;;;;;;;;;;;;;;;5016818;28;7018;-61
2022/06/19 12:57:41;;;;;;;;;;;;;;;;;;5016415;28;6942;-61
2022/06/19 13:00:12;;;;;;;;;;;;;;;;;;5016414;28;7366;-60
2022/06/19 13:06:00;;;;;;;;;;;;;;;;;;5016219;28;6939;-60
2022/06/19 13:08:37;;;;;;;;;;;;;;;;;;5015486;28;7613;-60
2022/06/19 13:11:29;;;;;;;;;;;;;;;;;;5016227;28;7109;-60
2022/06/19 13:14:26;;;;;;;;;;;;;;;;;;5016156;28;7026;-60
2022/06/19 13:20:13;;;;;;;;;;;;;;;;;;4989817;28;6807;-60
2022/06/19 13:22:42;;;;;;;;;;;;;;;;;;5016115;28;7577;-60
2022/06/19 13:25:24;;;;;;;;;;;;;;;;;;5015707;28;7131;-60
2022/06/19 13:28:08;;;;;;;;;;;;;;;;;;5015917;28;7346;-60
2022/06/19 13:30:54;;;;;;;;;;;;;;;;;;5016061;28;7173;-60
2022/06/19 13:33:38;;;;;;;;;;;;;;;;;;5015566;28;7251;-60
2022/06/19 13:42:24;;;;;;;;;;;;;;;;;;5015477;28;7093;-60
2022/06/19 13:45:09;;;;;;;;;;;;;;;;;;5015462;28;7198;-60
2022/06/19 13:47:46;;;;;;;;;;;;;;;;;;5015462;28;7155;-60
2022/06/19 13:50:14;;;;;;;;;;;;;;;;;;5015548;28;7183;-60
2022/06/19 13:52:47;;;;;;;;;;;;;;;;;;5015221;28;7655;-60
2022/06/19 13:55:51;;;;;;;;;;;;;;;;;;5014931;28;7417;-60
2022/06/19 13:58:32;;;;;;;;;;;;;;;;;;5015353;28;7173;-60
2022/06/19 14:01:17;;;;;;;;;;;;;;;;;;5015233;28;7115;-60
2022/06/19 14:06:47;;;;;;;;;;;;;;;;;;5015065;28;6851;-60
2022/06/19 14:15:49;;;;;;;;;;;;;;;;;;5014795;28;7017;-60
2022/06/19 14:30:42;;;;;;;;;;;;;;;;;;5006828;28;7195;-61
2022/06/19 14:33:26;;;;;;;;;;;;;;;;;;5012481;28;7141;-61
2022/06/19 14:36:23;;;;;;;;;;;;;;;;;;5014681;28;7244;-61
2022/06/19 14:38:50;;;;;;;;;;;;;;;;;;5014350;28;7421;-61
2022/06/19 14:44:31;;;;;;;;;;;;;;;;;;5014221;28;6987;-61
2022/06/19 14:47:02;;;;;;;;;;;;;;;;;;5009767;28;7158;-61
2022/06/19 14:52:43;;;;;;;;;;;;;;;;;;5014759;28;6800;-61
2022/06/19 14:55:23;;;;;;;;;;;;;;;;;;5014422;28;7217;-61
2022/06/19 14:57:57;;;;;;;;;;;;;;;;;;5014506;28;7183;-61
2022/06/19 15:00:26;;;;;;;;;;;;;;;;;;4997140;28;7087;-61
2022/06/19 15:02:54;;;;;;;;;;;;;;;;;;5014258;28;6996;-60
2022/06/19 15:05:19;;;;;;;;;;;;;;;;;;5013989;28;6953;-61
2022/06/19 15:07:46;;;;;;;;;;;;;;;;;;5014194;28;7128;-61
2022/06/19 15:10:13;;;;;;;;;;;;;;;;;;5014296;28;6936;-61
2022/06/19 15:22:15;;;;;;;;;;;;;;;;;;5014127;28;7000;-61
2022/06/19 15:24:43;;;;;;;;;;;;;;;;;;5014222;28;7416;-61
2022/06/19 15:27:39;;;;;;;;;;;;;;;;;;5014148;28;6811;-61
2022/06/19 15:30:10;;;;;;;;;;;;;;;;;;5012132;28;7038;-61
2022/06/19 15:35:58;;;;;;;;;;;;;;;;;;5017887;28;6986;-61
2022/06/19 15:38:27;;;;;;;;;;;;;;;;;;5017788;28;6972;-61
2022/06/19 15:41:27;;;;;;;;;;;;;;;;;;5018193;28;7419;-61
2022/06/19 15:43:58;;;;;;;;;;;;;;;;;;4984433;28;7115;-62
2022/06/19 15:46:32;;;;;;;;;;;;;;;;;;5017325;28;8201;-62
2022/06/19 15:48:58;;;;;;;;;;;;;;;;;;5017814;28;7332;-62
2022/06/19 15:54:27;;;;;;;;;;;;;;;;;;5017431;28;6994;-62
2022/06/19 15:56:59;;;;;;;;;;;;;;;;;;5017805;28;7356;-62
2022/06/19 15:59:35;;;;;;;;;;;;;;;;;;5017586;28;7176;-62
2022/06/19 16:02:15;;;;;;;;;;;;;;;;;;5017457;28;7437;-62
2022/06/19 16:04:47;;;;;;;;;;;;;;;;;;5017314;28;7154;-62
2022/06/19 16:07:34;;;;;;;;;;;;;;;;;;5017094;28;7116;-62
2022/06/19 16:13:11;;;;;;;;;;;;;;;;;;5017566;28;7053;-62
2022/06/19 16:18:29;;;;;;;;;;;;;;;;;;5017576;28;7008;-62
2022/06/19 16:21:00;;;;;;;;;;;;;;;;;;5017347;28;7068;-62
2022/06/19 16:23:29;;;;;;;;;;;;;;;;;;5017091;28;7417;-61
2022/06/19 16:29:17;;;;;;;;;;;;;;;;;;5016909;28;7071;-61
2022/06/19 16:31:49;;;;;;;;;;;;;;;;;;5017643;28;7046;-61
2022/06/19 16:34:23;;;;;;;;;;;;;;;;;;5017563;28;7466;-61
2022/06/19 16:45:23;;;;;;;;;;;;;;;;;;5017400;28;6976;-58
2022/06/19 16:47:49;;;;;;;;;;;;;;;;;;5012225;28;7255;-57
2022/06/19 16:50:23;;;;;;;;;;;;;;;;;;5017064;28;6935;-57
2022/06/19 16:52:52;;;;;;;;;;;;;;;;;;5017006;28;6966;-57
2022/06/19 16:55:37;;;;;;;;;;;;;;;;;;5016975;28;7172;-57
2022/06/19 17:00:55;;;;;;;;;;;;;;;;;;5017936;28;7025;-58
2022/06/19 17:03:20;;;;;;;;;;;;;;;;;;5016860;28;7157;-57
2022/06/19 17:06:20;;;;;;;;;;;;;;;;;;5016814;28;7139;-57
2022/06/19 17:08:49;;;;;;;;;;;;;;;;;;5017051;28;7195;-57
2022/06/19 17:11:19;;;;;;;;;;;;;;;;;;4999442;28;8585;-58
2022/06/19 17:13:49;;;;;;;;;;;;;;;;;;5016660;28;7522;-58
2022/06/19 17:16:17;;;;;;;;;;;;;;;;;;5016584;28;6993;-57
2022/06/19 17:18:45;;;;;;;;;;;;;;;;;;5016801;28;7015;-58
2022/06/19 17:21:19;;;;;;;;;;;;;;;;;;5016398;28;7081;-57
2022/06/19 17:24:11;;;;;;;;;;;;;;;;;;5016877;28;7176;-58
2022/06/19 17:26:37;;;;;;;;;;;;;;;;;;5029707;23;7146;-86
2022/06/19 17:29:04;;;;;;;;;;;;;;;;;;5014707;28;7859;-86
2022/06/19 17:31:32;;;;;;;;;;;;;;;;;;5015055;28;7060;-86
2022/06/19 17:34:00;;;;;;;;;;;;;;;;;;5014122;28;7391;-85
2022/06/19 17:36:38;;;;;;;;;;;;;;;;;;5014400;28;8305;-86
2022/06/19 17:39:06;;;;;;;;;;;;;;;;;;5015036;28;7008;-86
2022/06/19 17:41:32;;;;;;;;;;;;;;;;;;5014239;28;8346;-86
2022/06/19 17:44:01;;;;;;;;;;;;;;;;;;5013764;28;6836;-86
2022/06/19 17:46:29;;;;;;;;;;;;;;;;;;5013480;28;6947;-87
2022/06/19 17:48:59;;;;;;;;;;;;;;;;;;5014259;28;7127;-87
2022/06/19 17:51:31;;;;;;;;;;;;;;;;;;5013759;28;8283;-86
2022/06/19 17:54:03;;;;;;;;;;;;;;;;;;5014576;28;7251;-87
2022/06/19 17:56:47;;;;;;;;;;;;;;;;;;5013606;28;7232;-86
2022/06/19 17:59:25;;;;;;;;;;;;;;;;;;5014123;28;7055;-87
2022/06/19 18:01:54;;;;;;;;;;;;;;;;;;5030885;28;8470;-88
2022/06/19 18:04:25;;;;;;;;;;;;;;;;;;5013521;28;7126;-86
2022/06/19 18:06:52;;;;;;;;;;;;;;;;;;5014214;28;7381;-87
2022/06/19 18:09:29;;;;;;;;;;;;;;;;;;5013460;28;8809;-87
2022/06/19 18:11:56;;;;;;;;;;;;;;;;;;5013424;28;7249;-87
2022/06/19 18:14:30;;;;;;;;;;;;;;;;;;5013740;28;7405;-86
2022/06/19 18:19:42;;;;;;;;;;;;;;;;;;5014762;28;6812;-87
2022/06/19 18:22:08;;;;;;;;;;;;;;;;;;5030224;28;8451;-88
2022/06/19 18:24:36;;;;;;;;;;;;;;;;;;5013800;28;8403;-87
2022/06/19 18:27:17;;;;;;;;;;;;;;;;;;5013053;28;7037;-87
2022/06/19 18:29:42;;;;;;;;;;;;;;;;;;5013626;28;6820;-87
2022/06/19 18:32:10;;;;;;;;;;;;;;;;;;5029733;28;7345;-87
2022/06/19 18:34:37;;;;;;;;;;;;;;;;;;5013337;28;8441;-87
2022/06/19 18:37:04;;;;;;;;;;;;;;;;;;5013842;28;8425;-87
2022/06/19 18:39:33;;;;;;;;;;;;;;;;;;5013302;28;7395;-87
2022/06/19 18:41:59;;;;;;;;;;;;;;;;;;5013462;28;7157;-86
2022/06/19 18:44:26;;;;;;;;;;;;;;;;;;5013877;28;7122;-87
2022/06/19 18:46:54;;;;;;;;;;;;;;;;;;5013259;28;8300;-87
2022/06/19 18:49:29;;;;;;;;;;;;;;;;;;5013038;28;8677;-87
2022/06/19 18:51:56;;;;;;;;;;;;;;;;;;5013470;28;8734;-86
2022/06/19 18:54:27;;;;;;;;;;;;;;;;;;5013723;28;8638;-87
2022/06/19 18:56:53;;;;;;;;;;;;;;;;;;5013248;28;8401;-86
2022/06/19 18:59:19;;;;;;;;;;;;;;;;;;5013631;28;8354;-86
2022/06/19 19:01:44;;;;;;;;;;;;;;;;;;5013547;28;9388;-86
2022/06/19 19:04:10;;;;;;;;;;;;;;;;;;5013489;28;7413;-87
2022/06/19 19:06:37;;;;;;;;;;;;;;;;;;5013348;28;7167;-86
2022/06/19 19:09:04;;;;;;;;;;;;;;;;;;5017011;28;8459;-86
2022/06/19 19:11:29;;;;;;;;;;;;;;;;;;5017246;28;8718;-86
2022/06/19 19:13:55;;;;;;;;;;;;;;;;;;5017262;28;8680;-87
2022/06/19 19:16:25;;;;;;;;;;;;;;;;;;5017397;28;8418;-87
2022/06/19 19:18:53;;;;;;;;;;;;;;;;;;5016962;28;7071;-87
2022/06/19 19:21:19;;;;;;;;;;;;;;;;;;5016581;28;7184;-86
2022/06/19 19:23:44;;;;;;;;;;;;;;;;;;5017333;28;7017;-87
2022/06/19 19:26:30;;;;;;;;;;;;;;;;;;5016361;28;8425;-86